»·PEaware :: N241TD KSAC-74S

N241TD :: KSAC-74S

FLIGHT INFORMATION

Flight Status: Arrived
Operator: Privately registered:
United States
More flights under this callsign
Pilot: Charles S. (11412)
Aircraft: ECLIPSE 500
(EA50)
More flights by this aircraft type
Origin: KSAC Sacramento Executive
United States
Destination: 74S Anacortes
United States
More flights between these airports :: More routes between these airports
Route: +RBL J126 OLM
File this flight plan on PilotEdge
Remarks:
Altitude:
(Current/Filed)
32,000ft
Speed:
(Current/Filed)
115kts
Departed: 20-Aug-17 03:43 PM
Arrived: 20-Aug-17 05:41 PM
Distance/Time
Traveled:
601nm/1:58
Distance/Time
To Go:
Arrived

Flight Plot

Page will automatically refresh every two minutes.


Map Options




Map Legend


Flown Route
Filed Route
Departure Airport
Arrival Airport
Navaid (VOR, NDB)
Fix

Horizontal Profiles

Position Reports

Time Latitude Longitude Heading Altitude Ground
Speed
20-Aug-17 15:31 38.514684 -121.499311 223 21ft 0kts
20-Aug-17 15:32 38.514684 -121.499311 223 21ft 0kts
20-Aug-17 15:33 38.514684 -121.499311 223 21ft 0kts
20-Aug-17 15:34 38.514684 -121.499311 223 21ft 0kts
20-Aug-17 15:35 38.514684 -121.499311 223 21ft 0kts
20-Aug-17 15:36 38.514684 -121.499311 223 21ft 0kts
20-Aug-17 15:37 38.514684 -121.499311 223 21ft 0kts
20-Aug-17 15:38 38.514574 -121.499185 61 21ft 0kts
20-Aug-17 15:39 38.514576 -121.499182 59 21ft 0kts
20-Aug-17 15:40 38.514672 -121.499053 42 21ft 0kts
20-Aug-17 15:41 38.514672 -121.499053 42 21ft 0kts
20-Aug-17 15:42 38.513997 -121.497005 127 21ft 4kts
20-Aug-17 15:43 38.516388 -121.496859 2 24ft 20kts
20-Aug-17 15:44 38.519663 -121.494582 60 24ft 8kts
20-Aug-17 15:45 38.519164 -121.490320 100 24ft 0kts
20-Aug-17 15:46 38.519159 -121.490285 100 24ft 6kts
20-Aug-17 15:47 38.510049 -121.496833 212 346ft 149kts
20-Aug-17 15:48 38.501376 -121.541924 283 2034ft 157kts
20-Aug-17 15:49 38.514082 -121.608033 283 3917ft 245kts
20-Aug-17 15:50 38.545007 -121.676113 341 6036ft 266kts
20-Aug-17 15:51 38.618827 -121.702752 344 8448ft 276kts
20-Aug-17 15:52 38.695032 -121.730105 343 10841ft 287kts
20-Aug-17 15:53 38.774274 -121.758913 343 13242ft 306kts
20-Aug-17 15:54 38.863161 -121.791595 343 15655ft 358kts
20-Aug-17 15:55 38.926371 -121.814941 343 17195ft 368kts
20-Aug-17 15:56 38.998974 -121.841948 343 18895ft 386kts
20-Aug-17 15:57 39.102740 -121.880141 343 21223ft 404kts
20-Aug-17 15:58 39.211693 -121.920402 343 23574ft 415kts
20-Aug-17 15:59 39.324468 -121.962316 343 25910ft 432kts
20-Aug-17 16:00 39.440894 -122.005374 343 28239ft 445kts
20-Aug-17 16:01 39.560902 -122.049432 344 30562ft 457kts
20-Aug-17 16:02 39.684482 -122.094459 344 31894ft 467kts
20-Aug-17 16:03 39.809165 -122.139247 344 31896ft 467kts
20-Aug-17 16:04 39.923067 -122.179058 345 31884ft 378kts
20-Aug-17 16:05 40.023941 -122.212937 345 31875ft 376kts
20-Aug-17 16:06 40.125044 -122.243998 348 31876ft 376kts
20-Aug-17 16:07 40.226617 -122.272332 348 32253ft 372kts
20-Aug-17 16:08 40.326141 -122.299784 348 33203ft 368kts
20-Aug-17 16:09 40.426770 -122.327573 348 34156ft 374kts
20-Aug-17 16:10 40.528445 -122.355731 348 35107ft 379kts
20-Aug-17 16:11 40.630192 -122.383999 348 35845ft 377kts
20-Aug-17 16:12 40.732230 -122.412430 348 35843ft 375kts
20-Aug-17 16:13 40.834043 -122.440912 348 35840ft 376kts
20-Aug-17 16:14 40.935345 -122.469341 348 35843ft 377kts
20-Aug-17 16:15 41.035521 -122.497722 349 35870ft 369kts
20-Aug-17 16:16 41.128967 -122.524047 350 35944ft 343kts
20-Aug-17 16:17 41.222356 -122.550230 349 36012ft 344kts
20-Aug-17 16:18 41.315420 -122.576711 350 36045ft 344kts
20-Aug-17 16:19 41.408638 -122.603272 349 36045ft 344kts
20-Aug-17 16:20 41.501762 -122.629873 350 36045ft 344kts
20-Aug-17 16:21 41.572898 -122.650218 349 36045ft 344kts
20-Aug-17 16:22 41.628377 -122.666122 349 36042ft 344kts
20-Aug-17 16:23 41.713633 -122.690640 349 36041ft 344kts
20-Aug-17 16:24 41.806800 -122.717522 349 36040ft 344kts
20-Aug-17 16:25 41.899956 -122.744508 349 36039ft 344kts
20-Aug-17 16:26 41.993061 -122.771522 349 36037ft 344kts
20-Aug-17 16:27 42.086587 -122.798731 349 36033ft 344kts
20-Aug-17 16:28 42.163647 -122.821212 349 36037ft 344kts
20-Aug-17 16:29 42.257006 -122.848528 349 36035ft 344kts
20-Aug-17 16:30 42.365502 -122.880376 349 36034ft 344kts
20-Aug-17 16:31 42.458653 -122.907794 349 36033ft 343kts
20-Aug-17 16:32 42.552422 -122.927300 353 36032ft 342kts
20-Aug-17 16:33 42.630669 -122.941784 353 36032ft 342kts
20-Aug-17 16:34 42.724654 -122.959195 353 36032ft 342kts
20-Aug-17 16:35 42.834125 -122.979541 353 36040ft 341kts
20-Aug-17 16:36 42.912294 -122.994013 352 36049ft 340kts
20-Aug-17 16:37 43.005338 -123.011145 351 36061ft 338kts
20-Aug-17 16:38 43.098230 -123.028660 350 36065ft 339kts
20-Aug-17 16:39 43.191049 -123.046248 350 36072ft 339kts
20-Aug-17 16:40 43.283834 -123.063764 350 36071ft 339kts
20-Aug-17 16:41 43.376916 -123.081368 350 36070ft 338kts
20-Aug-17 16:42 43.469808 -123.098977 350 36069ft 338kts
20-Aug-17 16:43 43.562522 -123.116615 350 36077ft 338kts
20-Aug-17 16:44 43.655408 -123.134344 350 36101ft 338kts
20-Aug-17 16:45 43.747997 -123.152085 350 36109ft 338kts
20-Aug-17 16:46 43.840910 -123.169927 350 36111ft 338kts
20-Aug-17 16:47 43.933389 -123.187732 350 36111ft 338kts
20-Aug-17 16:48 44.025900 -123.205606 350 36110ft 338kts
20-Aug-17 16:49 44.100052 -123.219975 350 36109ft 338kts
20-Aug-17 16:50 44.164587 -123.214131 4 36115ft 340kts
20-Aug-17 16:51 44.256620 -123.197257 4 36116ft 341kts
20-Aug-17 16:52 44.349737 -123.179320 4 36115ft 341kts
20-Aug-17 16:53 44.441782 -123.161311 4 36115ft 341kts
20-Aug-17 16:54 44.535164 -123.142937 4 36114ft 341kts
20-Aug-17 16:55 44.628911 -123.124408 4 36114ft 341kts
20-Aug-17 16:56 44.722454 -123.105896 4 36117ft 341kts
20-Aug-17 16:57 44.815744 -123.087368 4 36121ft 341kts
20-Aug-17 16:58 44.909150 -123.068753 4 36121ft 341kts
20-Aug-17 16:59 45.002216 -123.050004 4 36114ft 340kts
20-Aug-17 17:00 45.095749 -123.030991 1 36088ft 342kts
20-Aug-17 17:01 45.189634 -123.012304 1 36074ft 344kts
20-Aug-17 17:02 45.284026 -122.993400 1 36063ft 344kts
20-Aug-17 17:03 45.378460 -122.978214 355 36094ft 341kts
20-Aug-17 17:04 45.461167 -122.974481 355 36122ft 341kts
20-Aug-17 17:05 45.519279 -122.971804 355 36123ft 341kts
20-Aug-17 17:06 45.586228 -122.968718 355 36123ft 341kts
20-Aug-17 17:07 45.677771 -122.964491 355 36122ft 341kts
20-Aug-17 17:08 45.772391 -122.960101 355 36121ft 341kts
20-Aug-17 17:09 45.866841 -122.955675 356 36131ft 341kts
20-Aug-17 17:10 45.961192 -122.950634 356 36140ft 341kts
20-Aug-17 17:11 46.055829 -122.945881 356 36151ft 341kts
20-Aug-17 17:12 46.150056 -122.941752 355 36123ft 342kts
20-Aug-17 17:13 46.246852 -122.937611 355 35088ft 349kts
20-Aug-17 17:14 46.341805 -122.933338 356 34049ft 337kts
20-Aug-17 17:15 46.434324 -122.928944 356 32889ft 332kts
20-Aug-17 17:16 46.525360 -122.924636 356 31440ft 325kts
20-Aug-17 17:17 46.614704 -122.920393 356 29987ft 319kts
20-Aug-17 17:18 46.701869 -122.916239 356 28540ft 313kts
20-Aug-17 17:19 46.787197 -122.912168 356 27094ft 307kts
20-Aug-17 17:20 46.871611 -122.908111 356 25632ft 300kts
20-Aug-17 17:21 46.953542 -122.904103 356 24229ft 292kts
20-Aug-17 17:22 47.034191 -122.893590 0 23936ft 292kts
20-Aug-17 17:23 47.111393 -122.882039 0 22317ft 285kts
20-Aug-17 17:24 47.189650 -122.870172 0 20678ft 280kts
20-Aug-17 17:25 47.268442 -122.858410 0 19070ft 340kts
20-Aug-17 17:26 47.368132 -122.843790 1 17378ft 366kts
20-Aug-17 17:27 47.467483 -122.828579 1 16008ft 354kts
20-Aug-17 17:28 47.565376 -122.813463 1 15991ft 351kts
20-Aug-17 17:29 47.663435 -122.798185 1 15989ft 352kts
20-Aug-17 17:30 47.761706 -122.782877 1 15318ft 349kts
20-Aug-17 17:31 47.851868 -122.768437 1 13715ft 326kts
20-Aug-17 17:32 47.937167 -122.754974 2 12170ft 318kts
20-Aug-17 17:33 48.013257 -122.742607 1 10693ft 276kts
20-Aug-17 17:34 48.088543 -122.730643 1 9240ft 273kts
20-Aug-17 17:35 48.161839 -122.718930 1 7817ft 270kts
20-Aug-17 17:36 48.235617 -122.707236 2 6365ft 266kts
20-Aug-17 17:37 48.309153 -122.695442 2 6042ft 266kts
20-Aug-17 17:38 48.377578 -122.684112 2 6028ft 207kts
20-Aug-17 17:39 48.433026 -122.674922 2 5192ft 200kts
20-Aug-17 17:40 48.487557 -122.667049 0 3569ft 196kts
20-Aug-17 17:41 48.539403 -122.674153 338 1947ft 168kts
20-Aug-17 17:42 48.556906 -122.659848 160 1366ft 97kts
20-Aug-17 17:43 48.533637 -122.644414 174 835ft 91kts
20-Aug-17 17:44 48.510703 -122.655650 201 434ft 89kts
20-Aug-17 17:45 48.496888 -122.663089 99 244ft 0kts

Navigation Log

Ident Type
Flight plan parsing failed, navigation log unavailable